createdAt,value
2023-02-11T00:01:25.412Z,-1.92
2023-02-11T00:03:53.554Z,-1.88
2023-02-11T00:06:21.530Z,-1.84
2023-02-11T00:08:49.105Z,-1.88
2023-02-11T00:11:19.828Z,-1.84
2023-02-11T00:13:48.073Z,-1.88
2023-02-11T00:16:19.312Z,-1.91
2023-02-11T00:18:47.598Z,-1.92
2023-02-11T00:21:18.114Z,-1.98
2023-02-11T00:23:46.754Z,-1.98
2023-02-11T00:26:23.304Z,-2.03
2023-02-11T00:28:51.922Z,-2.11
2023-02-11T00:31:22.341Z,-2.15
2023-02-11T00:33:50.724Z,-2.21
2023-02-11T00:36:21.562Z,-2.28
2023-02-11T00:38:50.567Z,-2.34
2023-02-11T00:41:19.014Z,-2.37
2023-02-11T00:43:46.834Z,-2.45
2023-02-11T00:46:16.128Z,-2.47
2023-02-11T00:48:43.786Z,-2.47
2023-02-11T00:51:12.019Z,-2.53
2023-02-11T00:53:40.290Z,-2.66
2023-02-11T00:56:08.075Z,-2.70
2023-02-11T00:58:36.806Z,-2.69
2023-02-11T01:01:05.357Z,-2.78
2023-02-11T01:03:33.023Z,-2.84
2023-02-11T01:06:00.826Z,-2.85
2023-02-11T01:08:28.720Z,-2.77
2023-02-11T01:11:02.084Z,-2.67
2023-02-11T01:13:31.535Z,-2.62
2023-02-11T01:15:59.094Z,-2.59
2023-02-11T01:18:27.288Z,-2.65
2023-02-11T01:20:55.483Z,-2.66
2023-02-11T01:23:24.148Z,-2.71
2023-02-11T01:25:52.140Z,-2.67
2023-02-11T01:28:23.237Z,-2.72
2023-02-11T01:30:51.438Z,-2.76
2023-02-11T01:33:19.310Z,-2.73
2023-02-11T01:35:47.210Z,-2.73
2023-02-11T01:38:17.174Z,-2.77
2023-02-11T01:41:07.232Z,-2.73
2023-02-11T01:43:44.051Z,-2.71
2023-02-11T01:46:35.225Z,-2.71
2023-02-11T01:49:07.354Z,-2.73
2023-02-11T01:51:41.874Z,-2.84
2023-02-11T01:54:32.585Z,-2.75
2023-02-11T01:57:20.999Z,-2.74
2023-02-11T01:59:54.737Z,-2.75
2023-02-11T02:02:26.633Z,-2.82
2023-02-11T02:05:03.281Z,-2.89
2023-02-11T02:07:39.593Z,-2.87
2023-02-11T02:10:17.429Z,-2.88
2023-02-11T02:12:44.970Z,-2.91
2023-02-11T02:15:25.528Z,-2.88
2023-02-11T02:18:22.082Z,-2.89
2023-02-11T02:21:02.834Z,-2.98
2023-02-11T02:23:51.832Z,-3.01
2023-02-11T02:26:47.336Z,-3.08
2023-02-11T02:29:39.486Z,-3.07
2023-02-11T02:32:37.766Z,-3.25
2023-02-11T02:35:37.705Z,-3.37
2023-02-11T02:38:11.219Z,-3.35
2023-02-11T02:40:51.940Z,-3.42
2023-02-11T02:43:21.670Z,-3.53
2023-02-11T02:45:49.807Z,-3.55
2023-02-11T02:48:30.797Z,-3.55
2023-02-11T02:51:13.685Z,-3.58
2023-02-11T02:53:58.549Z,-3.60
2023-02-11T02:56:41.249Z,-3.63
2023-02-11T02:59:33.553Z,-3.62
2023-02-11T03:02:29.685Z,-3.54
2023-02-11T03:05:12.425Z,-3.61
2023-02-11T03:08:01.516Z,-3.64
2023-02-11T03:10:34.373Z,-3.61
2023-02-11T03:13:04.701Z,-3.55
2023-02-11T03:15:37.842Z,-3.49
2023-02-11T03:18:09.511Z,-3.52
2023-02-11T03:20:39.362Z,-3.56
2023-02-11T03:23:19.175Z,-3.63
2023-02-11T03:26:08.869Z,-3.62
2023-02-11T03:29:16.691Z,-3.70
2023-02-11T03:31:59.489Z,-3.74
2023-02-11T03:34:50.169Z,-3.72
2023-02-11T03:37:40.952Z,-3.71
2023-02-11T03:40:13.909Z,-3.88
2023-02-11T03:42:49.748Z,-3.91
2023-02-11T03:45:21.839Z,-3.89
2023-02-11T03:47:55.794Z,-3.90
2023-02-11T03:50:24.978Z,-3.90
2023-02-11T03:52:55.212Z,-3.97
2023-02-11T03:55:26.003Z,-3.97
2023-02-11T03:57:53.603Z,-3.93
2023-02-11T04:00:21.144Z,-3.92
2023-02-11T04:02:49.189Z,-3.84
2023-02-11T04:05:16.881Z,-3.87
2023-02-11T04:07:44.756Z,-3.86
2023-02-11T04:10:13.075Z,-3.92
2023-02-11T04:12:40.586Z,-3.87
2023-02-11T04:15:08.757Z,-3.95
2023-02-11T04:17:36.696Z,-3.92
2023-02-11T04:20:04.552Z,-3.96
2023-02-11T04:22:32.196Z,-3.96
2023-02-11T04:25:00.043Z,-3.88
2023-02-11T04:27:27.577Z,-3.93
2023-02-11T04:29:55.106Z,-3.86
2023-02-11T04:32:23.011Z,-3.97
2023-02-11T04:34:50.685Z,-3.95
2023-02-11T04:37:18.275Z,-3.97
2023-02-11T04:39:46.106Z,-4.00
2023-02-11T04:42:13.630Z,-4.06
2023-02-11T04:44:41.190Z,-4.01
2023-02-11T04:47:09.116Z,-3.96
2023-02-11T04:49:36.637Z,-3.87
2023-02-11T04:52:04.293Z,-3.89
2023-02-11T04:54:32.054Z,-3.78
2023-02-11T04:56:59.568Z,-3.80
2023-02-11T04:59:27.290Z,-3.77
2023-02-11T05:01:55.330Z,-3.65
2023-02-11T05:04:23.122Z,-3.80
2023-02-11T05:06:50.689Z,-3.79
2023-02-11T05:09:18.718Z,-3.69
2023-02-11T05:11:46.191Z,-3.72
2023-02-11T05:14:13.741Z,-3.80
2023-02-11T05:16:41.613Z,-3.87
2023-02-11T05:19:09.189Z,-3.89
2023-02-11T05:21:36.695Z,-3.76
2023-02-11T05:24:04.908Z,-3.85
2023-02-11T05:26:32.736Z,-3.84
2023-02-11T05:29:00.256Z,-3.78
2023-02-11T05:31:28.109Z,-3.67
2023-02-11T05:33:55.644Z,-3.67
2023-02-11T05:36:23.182Z,-3.69
2023-02-11T05:38:51.120Z,-3.77
2023-02-11T05:41:18.685Z,-3.79
2023-02-11T05:43:49.957Z,-3.67
2023-02-11T05:46:18.307Z,-3.68
2023-02-11T05:48:45.873Z,-3.72
2023-02-11T05:51:13.408Z,-3.83
2023-02-11T05:53:41.227Z,-3.84
2023-02-11T05:56:09.520Z,-3.91
2023-02-11T05:58:38.712Z,-3.92
2023-02-11T06:01:06.665Z,-3.94
2023-02-11T06:03:34.533Z,-3.92
2023-02-11T06:06:02.083Z,-3.87
2023-02-11T06:08:29.604Z,-3.90
2023-02-11T06:10:57.381Z,-3.90
2023-02-11T06:13:24.917Z,-3.84
2023-02-11T06:15:59.940Z,-3.79
2023-02-11T06:18:28.104Z,-3.68
2023-02-11T06:20:56.115Z,-3.59
2023-02-11T06:23:23.728Z,-3.49
2023-02-11T06:25:52.372Z,-3.42
2023-02-11T06:28:20.254Z,-3.29
2023-02-11T06:30:47.975Z,-3.27
2023-02-11T06:33:15.857Z,-3.16
2023-02-11T06:35:43.422Z,-3.06
2023-02-11T06:38:10.902Z,-2.98
2023-02-11T06:40:39.786Z,-2.81
2023-02-11T06:43:07.366Z,-2.69
2023-02-11T06:45:34.852Z,-2.60
2023-02-11T06:48:02.664Z,-2.54
2023-02-11T06:50:30.192Z,-2.42
2023-02-11T06:52:59.915Z,-2.34
2023-02-11T06:55:27.909Z,-2.20
2023-02-11T06:57:55.448Z,-2.10
2023-02-11T07:00:23.152Z,-2.01
2023-02-11T07:02:51.001Z,-1.90
2023-02-11T07:05:18.706Z,-1.75
2023-02-11T07:07:46.367Z,-1.72
2023-02-11T07:10:14.554Z,-1.68
2023-02-11T07:12:42.099Z,-1.59
2023-02-11T07:15:09.835Z,-1.60
2023-02-11T07:17:37.650Z,-1.50
2023-02-11T07:20:05.552Z,-1.42
2023-02-11T07:22:34.712Z,-1.34
2023-02-11T07:25:02.548Z,-1.07
2023-02-11T07:27:30.146Z,-1.02
2023-02-11T07:29:57.754Z,-1.06
2023-02-11T07:32:25.596Z,-1.05
2023-02-11T07:34:53.185Z,-1.03
2023-02-11T07:37:20.768Z,-0.98
2023-02-11T07:39:48.626Z,-0.89
2023-02-11T07:42:16.148Z,-0.93
2023-02-11T07:44:44.157Z,-0.96
2023-02-11T07:47:11.937Z,-0.48
2023-02-11T07:49:39.465Z,0.02
2023-02-11T07:52:06.971Z,0.58
2023-02-11T07:54:37.662Z,1.10
2023-02-11T07:57:05.185Z,1.46
2023-02-11T07:59:32.810Z,1.83
2023-02-11T08:02:00.750Z,2.11
2023-02-11T08:04:28.711Z,2.57
2023-02-11T08:06:59.092Z,2.91
2023-02-11T08:09:26.724Z,3.10
2023-02-11T08:11:54.609Z,3.55
2023-02-11T08:14:22.159Z,4.03
2023-02-11T08:16:49.769Z,4.32
2023-02-11T08:19:17.809Z,4.63
2023-02-11T08:21:46.017Z,4.91
2023-02-11T08:24:13.575Z,5.36
2023-02-11T08:26:41.854Z,5.65
2023-02-11T08:29:12.852Z,6.01
2023-02-11T08:31:43.588Z,6.33
2023-02-11T08:34:14.276Z,6.43
2023-02-11T08:36:42.680Z,6.69
2023-02-11T08:39:19.756Z,6.84
2023-02-11T08:41:53.985Z,7.20
2023-02-11T08:44:22.770Z,7.40
2023-02-11T08:46:51.438Z,7.61
2023-02-11T08:49:19.878Z,7.73
2023-02-11T08:51:47.655Z,7.94
2023-02-11T08:54:15.956Z,8.14
2023-02-11T08:56:43.916Z,8.36
2023-02-11T08:59:14.787Z,8.41
2023-02-11T09:01:44.339Z,8.81
2023-02-11T09:04:12.293Z,9.08
2023-02-11T09:06:40.191Z,9.15
2023-02-11T09:09:11.580Z,9.19
2023-02-11T09:11:40.771Z,9.10
2023-02-11T09:14:19.940Z,9.33
2023-02-11T09:16:48.448Z,9.64
2023-02-11T09:19:16.710Z,10.18
2023-02-11T09:21:44.300Z,10.42
2023-02-11T09:24:12.145Z,10.65
2023-02-11T09:26:41.799Z,9.88
2023-02-11T09:29:09.339Z,9.20
2023-02-11T09:31:36.983Z,8.70
2023-02-11T09:34:06.365Z,8.28
2023-02-11T09:36:37.680Z,7.81
2023-02-11T09:39:08.940Z,7.43
2023-02-11T09:41:42.445Z,7.08
2023-02-11T09:44:30.297Z,6.84
2023-02-11T09:47:07.579Z,6.89
2023-02-11T09:49:49.206Z,6.95
2023-02-11T09:52:44.818Z,7.00
2023-02-11T09:55:39.745Z,7.45
2023-02-11T09:58:17.123Z,7.41
2023-02-11T10:01:10.880Z,7.86
2023-02-11T10:04:14.471Z,7.86
2023-02-11T10:06:53.305Z,7.69
2023-02-11T10:09:39.654Z,7.82
2023-02-11T10:12:32.595Z,7.74
2023-02-11T10:15:15.073Z,7.63
2023-02-11T10:18:01.294Z,7.64
2023-02-11T10:20:37.516Z,7.51
2023-02-11T10:23:26.872Z,7.41
2023-02-11T10:25:56.767Z,7.30
2023-02-11T10:28:30.221Z,7.11
2023-02-11T10:31:02.164Z,7.03
2023-02-11T10:33:57.629Z,6.84
2023-02-11T10:36:31.452Z,6.82
2023-02-11T10:39:20.182Z,6.79
2023-02-11T10:41:51.257Z,6.70
2023-02-11T10:44:41.856Z,6.44
2023-02-11T10:47:25.367Z,6.66
2023-02-11T10:49:52.878Z,6.34
2023-02-11T10:52:26.951Z,6.67
2023-02-11T10:54:59.041Z,6.62
2023-02-11T10:58:00.805Z,7.00
2023-02-11T11:00:42.984Z,7.25
2023-02-11T11:03:23.801Z,8.19
2023-02-11T11:06:31.607Z,8.71
2023-02-11T11:08:59.690Z,8.91
2023-02-11T11:11:27.633Z,8.44
2023-02-11T11:14:00.463Z,8.46
2023-02-11T11:16:36.304Z,8.45
2023-02-11T11:19:06.529Z,8.53
2023-02-11T11:21:36.875Z,8.31
2023-02-11T11:24:04.796Z,8.30
2023-02-11T11:26:43.955Z,8.07
2023-02-11T11:29:22.548Z,7.61
2023-02-11T11:32:01.882Z,7.36
2023-02-11T11:34:40.699Z,7.54
2023-02-11T11:37:19.933Z,7.25
2023-02-11T11:40:09.395Z,6.99
2023-02-11T11:42:39.231Z,6.97
2023-02-11T11:45:10.226Z,7.03
2023-02-11T11:47:56.307Z,6.99
2023-02-11T11:50:44.384Z,7.05
2023-02-11T11:53:29.748Z,7.06
2023-02-11T11:56:34.634Z,7.02
2023-02-11T11:59:11.457Z,6.95
2023-02-11T12:01:39.314Z,6.89
2023-02-11T12:04:26.505Z,6.87
2023-02-11T12:07:19.069Z,6.54
2023-02-11T12:09:46.803Z,6.46
2023-02-11T12:12:14.274Z,6.51
2023-02-11T12:15:23.292Z,6.60
2023-02-11T12:18:03.249Z,6.73
2023-02-11T12:20:58.993Z,6.67
2023-02-11T12:23:54.334Z,6.72
2023-02-11T12:26:32.392Z,6.95
2023-02-11T12:29:16.463Z,7.12
2023-02-11T12:31:49.843Z,7.40
2023-02-11T12:34:23.427Z,7.51
2023-02-11T12:37:27.584Z,7.48
2023-02-11T12:40:09.212Z,7.60
2023-02-11T12:42:55.214Z,7.44
2023-02-11T12:46:00.376Z,7.63
2023-02-11T12:48:30.526Z,7.60
2023-02-11T12:51:14.950Z,7.62
2023-02-11T12:54:22.763Z,7.79
2023-02-11T12:56:53.629Z,7.81
2023-02-11T12:59:41.593Z,7.82
2023-02-11T13:02:23.446Z,7.63
2023-02-11T13:04:56.674Z,7.45
2023-02-11T13:07:40.216Z,7.25
2023-02-11T13:10:23.943Z,7.21
2023-02-11T13:13:13.147Z,7.35
2023-02-11T13:15:43.971Z,7.48
2023-02-11T13:18:22.767Z,7.66
2023-02-11T13:20:55.888Z,7.90
2023-02-11T13:23:26.696Z,7.84
2023-02-11T13:26:05.731Z,7.77
2023-02-11T13:28:42.726Z,7.34
2023-02-11T13:31:12.903Z,7.19
2023-02-11T13:33:45.891Z,7.29
2023-02-11T13:36:17.974Z,7.65
2023-02-11T13:38:56.162Z,7.74
2023-02-11T13:41:31.896Z,8.01
2023-02-11T13:44:06.530Z,8.11
2023-02-11T13:46:55.670Z,8.21
2023-02-11T13:49:37.540Z,8.05
2023-02-11T13:52:16.567Z,8.04
2023-02-11T13:54:49.554Z,7.94
2023-02-11T13:57:20.105Z,8.05
2023-02-11T13:59:51.520Z,8.08
2023-02-11T14:02:47.625Z,8.10
2023-02-11T14:05:37.208Z,8.20
2023-02-11T14:08:26.215Z,7.89
2023-02-11T14:10:56.901Z,7.64
2023-02-11T14:13:32.624Z,7.26
2023-02-11T14:16:36.957Z,6.95
2023-02-11T14:19:06.548Z,6.82
2023-02-11T14:21:37.635Z,6.65
2023-02-11T14:24:05.230Z,6.53
2023-02-11T14:26:50.019Z,6.63
2023-02-11T14:29:35.784Z,7.02
2023-02-11T14:32:24.325Z,7.19
2023-02-11T14:34:52.207Z,7.46
2023-02-11T14:37:19.627Z,7.64
2023-02-11T14:39:56.090Z,7.76
2023-02-11T14:42:27.215Z,7.93
2023-02-11T14:45:05.166Z,7.85
2023-02-11T14:47:45.320Z,7.93
2023-02-11T14:50:19.449Z,7.91
2023-02-11T14:52:47.581Z,7.93
2023-02-11T14:55:27.054Z,7.65
2023-02-11T14:58:16.657Z,7.62
2023-02-11T15:00:59.435Z,7.36
2023-02-11T15:03:37.756Z,7.19
2023-02-11T15:06:26.921Z,7.11
2023-02-11T15:09:17.800Z,6.99
2023-02-11T15:11:49.622Z,6.79
2023-02-11T15:14:27.337Z,6.62
2023-02-11T15:16:58.218Z,6.60
2023-02-11T15:19:48.922Z,6.61
2023-02-11T15:22:22.240Z,6.46
2023-02-11T15:25:10.365Z,6.34
2023-02-11T15:27:49.336Z,6.27
2023-02-11T15:30:23.279Z,6.11
2023-02-11T15:32:58.160Z,9.09
2023-02-11T15:35:28.893Z,11.54
2023-02-11T15:37:58.551Z,13.19
2023-02-11T15:40:32.459Z,13.86
2023-02-11T15:43:06.033Z,13.72
2023-02-11T15:45:41.753Z,11.16
2023-02-11T15:48:16.183Z,9.95
2023-02-11T15:51:00.639Z,8.91
2023-02-11T15:53:48.559Z,8.09
2023-02-11T15:56:35.359Z,7.39
2023-02-11T15:59:21.147Z,6.90
2023-02-11T16:01:49.764Z,6.63
2023-02-11T16:04:23.691Z,6.32
2023-02-11T16:06:53.114Z,6.06
2023-02-11T16:09:36.007Z,5.87
2023-02-11T16:12:21.602Z,5.70
2023-02-11T16:14:49.438Z,5.57
2023-02-11T16:17:29.169Z,5.54
2023-02-11T16:19:57.129Z,5.46
2023-02-11T16:22:28.116Z,5.38
2023-02-11T16:24:59.155Z,5.33
2023-02-11T16:27:39.704Z,5.18
2023-02-11T16:30:21.724Z,5.24
2023-02-11T16:32:49.627Z,5.20
2023-02-11T16:35:17.577Z,5.14
2023-02-11T16:37:45.074Z,5.10
2023-02-11T16:40:14.262Z,5.12
2023-02-11T16:42:41.760Z,5.05
2023-02-11T16:45:09.796Z,5.03
2023-02-11T16:47:41.057Z,5.06
2023-02-11T16:50:11.282Z,4.99
2023-02-11T16:52:39.235Z,4.95
2023-02-11T16:55:06.911Z,4.82
2023-02-11T16:57:34.529Z,4.84
2023-02-11T17:00:02.341Z,4.79
2023-02-11T17:02:34.761Z,4.75
2023-02-11T17:05:06.406Z,4.70
2023-02-11T17:07:34.103Z,4.61
2023-02-11T17:10:02.227Z,4.63
2023-02-11T17:12:29.788Z,4.67
2023-02-11T17:14:57.345Z,4.62
2023-02-11T17:17:25.170Z,4.61
2023-02-11T17:19:52.657Z,4.55
2023-02-11T17:22:20.239Z,4.53
2023-02-11T17:24:48.081Z,4.49
2023-02-11T17:27:15.604Z,4.51
2023-02-11T17:29:43.496Z,4.53
2023-02-11T17:32:11.357Z,4.63
2023-02-11T17:34:38.874Z,4.69
2023-02-11T17:37:09.680Z,4.66
2023-02-11T17:39:39.968Z,4.69
2023-02-11T17:42:08.786Z,4.68
2023-02-11T17:44:37.348Z,4.62
2023-02-11T17:47:04.992Z,4.50
2023-02-11T17:49:32.540Z,4.53
2023-02-11T17:52:00.361Z,4.50
2023-02-11T17:54:27.911Z,4.44
2023-02-11T17:56:58.195Z,4.33
2023-02-11T17:59:28.522Z,4.27
2023-02-11T18:01:56.009Z,4.24
2023-02-11T18:04:23.836Z,4.32
2023-02-11T18:06:53.633Z,4.27
2023-02-11T18:09:21.499Z,4.22
2023-02-11T18:11:50.665Z,4.20
2023-02-11T18:14:19.372Z,4.19
2023-02-11T18:16:51.368Z,4.22
2023-02-11T18:19:19.905Z,4.18
2023-02-11T18:21:50.353Z,4.20
2023-02-11T18:24:18.378Z,4.12
2023-02-11T18:26:46.150Z,4.13
2023-02-11T18:29:13.586Z,4.11
2023-02-11T18:31:41.301Z,4.12
2023-02-11T18:34:10.750Z,4.02
2023-02-11T18:36:38.449Z,3.99
2023-02-11T18:39:06.156Z,4.07
2023-02-11T18:41:34.136Z,4.11
2023-02-11T18:44:03.386Z,4.20
2023-02-11T18:46:31.484Z,4.18
2023-02-11T18:48:59.369Z,4.17
2023-02-11T18:51:27.108Z,4.13
2023-02-11T18:53:54.807Z,4.14
2023-02-11T18:56:26.064Z,4.11
2023-02-11T18:58:55.089Z,4.16
2023-02-11T19:01:27.323Z,4.14
2023-02-11T19:03:57.456Z,4.07
2023-02-11T19:06:28.070Z,4.10
2023-02-11T19:08:59.921Z,4.14
2023-02-11T19:11:48.861Z,4.14
2023-02-11T19:14:23.097Z,4.12
2023-02-11T19:16:53.628Z,4.10
2023-02-11T19:19:25.415Z,4.10
2023-02-11T19:21:53.556Z,4.06
2023-02-11T19:24:22.402Z,4.04
2023-02-11T19:26:52.130Z,4.07
2023-02-11T19:29:19.983Z,4.07
2023-02-11T19:31:47.848Z,4.08
2023-02-11T19:34:19.974Z,4.08
2023-02-11T19:36:49.226Z,4.04
2023-02-11T19:39:16.982Z,4.02
2023-02-11T19:41:44.641Z,3.98
2023-02-11T19:44:14.066Z,3.94
2023-02-11T19:46:41.899Z,3.94
2023-02-11T19:49:14.285Z,3.98
2023-02-11T19:51:42.066Z,3.90
2023-02-11T19:54:09.648Z,3.95
2023-02-11T19:56:38.049Z,3.94
2023-02-11T19:59:08.937Z,3.93
2023-02-11T20:01:37.253Z,3.91
2023-02-11T20:04:05.500Z,3.87
2023-02-11T20:06:34.451Z,3.79
2023-02-11T20:09:07.740Z,3.79
2023-02-11T20:11:36.579Z,3.68
2023-02-11T20:14:04.641Z,3.67
2023-02-11T20:16:46.886Z,3.63
2023-02-11T20:19:19.184Z,3.64
2023-02-11T20:21:48.882Z,3.69
2023-02-11T20:24:18.534Z,3.70
2023-02-11T20:26:48.535Z,3.70
2023-02-11T20:29:17.849Z,3.78
2023-02-11T20:31:46.215Z,3.77
2023-02-11T20:34:14.386Z,3.78
2023-02-11T20:36:42.067Z,3.78
2023-02-11T20:39:11.276Z,3.79
2023-02-11T20:41:41.765Z,3.82
2023-02-11T20:44:10.937Z,3.85
2023-02-11T20:46:41.465Z,3.79
2023-02-11T20:49:13.463Z,3.82
2023-02-11T20:51:42.351Z,3.77
2023-02-11T20:54:14.905Z,3.72
2023-02-11T20:56:44.462Z,3.71
2023-02-11T20:59:14.187Z,3.72
2023-02-11T21:01:44.689Z,3.75
2023-02-11T21:04:19.150Z,3.69
2023-02-11T21:06:52.174Z,3.73
2023-02-11T21:09:22.978Z,3.74
2023-02-11T21:11:52.004Z,3.75
2023-02-11T21:14:22.373Z,3.71
2023-02-11T21:16:50.448Z,3.68
2023-02-11T21:19:18.507Z,3.67
2023-02-11T21:21:46.467Z,3.68
2023-02-11T21:24:14.562Z,3.63
2023-02-11T21:26:42.543Z,3.62
2023-02-11T21:29:11.082Z,3.57
2023-02-11T21:31:39.616Z,3.59
2023-02-11T21:34:07.437Z,3.59
2023-02-11T21:36:35.368Z,3.52
2023-02-11T21:39:04.012Z,3.48
2023-02-11T21:41:32.076Z,3.35
2023-02-11T21:44:00.033Z,3.37
2023-02-11T21:46:27.854Z,3.31
2023-02-11T21:48:55.415Z,3.24
2023-02-11T21:51:25.232Z,3.18
2023-02-11T21:54:01.360Z,3.18
2023-02-11T21:56:31.491Z,3.15
2023-02-11T21:59:00.024Z,3.15
2023-02-11T22:01:33.213Z,3.17
2023-02-11T22:04:01.274Z,3.19
2023-02-11T22:06:31.987Z,3.20
2023-02-11T22:09:03.230Z,3.19
2023-02-11T22:11:31.414Z,3.17
2023-02-11T22:13:59.460Z,3.16
2023-02-11T22:16:28.146Z,3.16
2023-02-11T22:18:59.485Z,3.19
2023-02-11T22:21:27.111Z,3.16
2023-02-11T22:23:55.987Z,3.19
2023-02-11T22:26:25.733Z,3.21
2023-02-11T22:28:53.866Z,3.18
2023-02-11T22:31:27.574Z,3.28
2023-02-11T22:33:56.585Z,3.23
2023-02-11T22:36:32.680Z,3.32
2023-02-11T22:39:05.723Z,3.31
2023-02-11T22:41:33.567Z,3.41
2023-02-11T22:44:01.609Z,3.48
2023-02-11T22:46:29.181Z,3.53
2023-02-11T22:48:56.847Z,3.61
2023-02-11T22:51:27.926Z,3.62
2023-02-11T22:53:57.877Z,3.68
2023-02-11T22:56:26.921Z,3.75
2023-02-11T22:59:00.146Z,3.71
2023-02-11T23:01:29.408Z,3.76
2023-02-11T23:03:59.430Z,3.76
2023-02-11T23:06:27.051Z,3.73
2023-02-11T23:08:54.959Z,3.78
2023-02-11T23:11:28.377Z,3.81
2023-02-11T23:13:57.159Z,3.85
2023-02-11T23:16:27.995Z,3.90
2023-02-11T23:18:55.840Z,3.95
2023-02-11T23:21:26.488Z,3.94
2023-02-11T23:23:56.944Z,3.95
2023-02-11T23:26:25.713Z,3.99
2023-02-11T23:28:53.303Z,3.97
2023-02-11T23:31:23.354Z,4.04
2023-02-11T23:33:51.705Z,4.03
2023-02-11T23:36:21.068Z,4.04
2023-02-11T23:38:49.219Z,4.03
2023-02-11T23:41:17.206Z,4.04
2023-02-11T23:43:44.816Z,4.02
2023-02-11T23:46:12.359Z,4.04
2023-02-11T23:48:40.568Z,4.04
2023-02-11T23:51:09.860Z,3.96
2023-02-11T23:53:38.721Z,3.85
2023-02-11T23:56:11.333Z,3.85
2023-02-11T23:58:39.028Z,3.84
